XUA1094 SVMI-SVCN
Flight info
| Callsign | XUA1094 |
|---|---|
| Flight time | N/A |
| Altitude | 23000 |
| Route | OSMAR2 OSMAR W20 CBC G678 CBL W20 CMA |
| Aircraft | B737/M-SDE2E3FGHIRWXY/LB1 |
Departure
| Time | 2026-05-07 19:29 |
|---|---|
| Airport | Maiquetía Simón Bolívar International Airport (SVMI) |
Arrival
| Time | N/A |
|---|---|
| Airport | Canaima Airport (SVCN) |
| Time | Latitude | Longitude | Altitude | Speed | Heading |
|---|---|---|---|---|---|
| 2026-05-07 19:22 | 10.59924 | -67.00377 | 226 ft | 0 kts | 269° |
| 2026-05-07 19:23 | 10.59923 | -67.00382 | 226 ft | 2 kts | 269° |
| 2026-05-07 19:23 | 10.59923 | -67.00413 | 228 ft | 6 kts | 268° |
| 2026-05-07 19:23 | 10.59921 | -67.00469 | 227 ft | 8 kts | 268° |
| 2026-05-07 19:23 | 10.59919 | -67.00525 | 231 ft | 7 kts | 268° |
| 2026-05-07 19:24 | 10.59917 | -67.00574 | 229 ft | 6 kts | 268° |
| 2026-05-07 19:24 | 10.59915 | -67.00615 | 230 ft | 6 kts | 268° |
| 2026-05-07 19:24 | 10.59914 | -67.00657 | 231 ft | 6 kts | 268° |
| 2026-05-07 19:24 | 10.59912 | -67.00702 | 232 ft | 7 kts | 268° |
| 2026-05-07 19:25 | 10.59910 | -67.00749 | 232 ft | 7 kts | 268° |
| 2026-05-07 19:25 | 10.59909 | -67.00799 | 233 ft | 7 kts | 269° |
| 2026-05-07 19:25 | 10.59908 | -67.00852 | 234 ft | 8 kts | 268° |
| 2026-05-07 19:25 | 10.59906 | -67.00907 | 235 ft | 8 kts | 268° |
| 2026-05-07 19:26 | 10.59904 | -67.00965 | 239 ft | 8 kts | 269° |
| 2026-05-07 19:26 | 10.59903 | -67.01024 | 237 ft | 8 kts | 269° |
| 2026-05-07 19:26 | 10.59901 | -67.01084 | 238 ft | 9 kts | 267° |
| 2026-05-07 19:26 | 10.59899 | -67.01145 | 239 ft | 9 kts | 269° |
| 2026-05-07 19:27 | 10.59907 | -67.01207 | 241 ft | 9 kts | 298° |
| 2026-05-07 19:27 | 10.59961 | -67.01235 | 241 ft | 10 kts | 351° |
| 2026-05-07 19:27 | 10.60033 | -67.01242 | 241 ft | 11 kts | 356° |
| 2026-05-07 19:27 | 10.60114 | -67.01245 | 240 ft | 12 kts | 359° |
| 2026-05-07 19:28 | 10.60125 | -67.01245 | 240 ft | 1 kts | 358° |
| 2026-05-07 19:28 | 10.60160 | -67.01246 | 238 ft | 10 kts | 357° |
| 2026-05-07 19:28 | 10.60213 | -67.01213 | 236 ft | 11 kts | 83° |
| 2026-05-07 19:28 | 10.60218 | -67.01113 | 233 ft | 32 kts | 88° |
| 2026-05-07 19:29 | 10.60232 | -67.00655 | 221 ft | 95 kts | 88° |
| 2026-05-07 19:29 | 10.60259 | -66.99805 | 213 ft | 144 kts | 88° |
| 2026-05-07 19:29 | 10.60285 | -66.98681 | 366 ft | 168 kts | 89° |
| 2026-05-07 19:29 | 10.60302 | -66.97533 | 1140 ft | 154 kts | 90° |
| 2026-05-07 19:30 | 10.60255 | -66.96506 | 1963 ft | 137 kts | 97° |
| 2026-05-07 19:30 | 10.60087 | -66.95563 | 2440 ft | 137 kts | 103° |
| 2026-05-07 19:30 | 10.59781 | -66.94594 | 2714 ft | 152 kts | 110° |
| 2026-05-07 19:30 | 10.59449 | -66.93530 | 3049 ft | 163 kts | 96° |
| 2026-05-07 19:31 | 10.59362 | -66.92348 | 3418 ft | 176 kts | 90° |
| 2026-05-07 19:31 | 10.59349 | -66.91048 | 3761 ft | 191 kts | 88° |
| 2026-05-07 19:31 | 10.59646 | -66.89664 | 4144 ft | 210 kts | 72° |
| 2026-05-07 19:31 | 10.60185 | -66.88223 | 4573 ft | 225 kts | 69° |
| 2026-05-07 19:32 | 10.60805 | -66.86701 | 5035 ft | 240 kts | 69° |
| 2026-05-07 19:32 | 10.61469 | -66.85077 | 5469 ft | 255 kts | 69° |
| 2026-05-07 19:32 | 10.62146 | -66.83418 | 5795 ft | 260 kts | 69° |
| 2026-05-07 19:32 | 10.62843 | -66.81698 | 6034 ft | 263 kts | 69° |
| 2026-05-07 19:33 | 10.63540 | -66.79970 | 6241 ft | 264 kts | 70° |
| 2026-05-07 19:33 | 10.64237 | -66.78230 | 6428 ft | 265 kts | 70° |
| 2026-05-07 19:33 | 10.64932 | -66.76500 | 6603 ft | 267 kts | 70° |
| 2026-05-07 19:33 | 10.65632 | -66.74754 | 6760 ft | 267 kts | 69° |
| 2026-05-07 19:34 | 10.66338 | -66.72997 | 6932 ft | 268 kts | 70° |
| 2026-05-07 19:34 | 10.67040 | -66.71244 | 7082 ft | 267 kts | 69° |
| 2026-05-07 19:34 | 10.67737 | -66.69507 | 7187 ft | 269 kts | 70° |
| 2026-05-07 19:34 | 10.68445 | -66.67743 | 7296 ft | 270 kts | 70° |
| 2026-05-07 19:35 | 10.69155 | -66.65970 | 7408 ft | 270 kts | 70° |
| 2026-05-07 19:35 | 10.69866 | -66.64196 | 7543 ft | 271 kts | 70° |
| 2026-05-07 19:35 | 10.70579 | -66.62419 | 7660 ft | 271 kts | 70° |
| 2026-05-07 19:35 | 10.71291 | -66.60641 | 7780 ft | 271 kts | 70° |
| 2026-05-07 19:36 | 10.72005 | -66.58860 | 7914 ft | 272 kts | 70° |
| 2026-05-07 19:36 | 10.72618 | -66.57071 | 8016 ft | 269 kts | 82° |
| 2026-05-07 19:36 | 10.72646 | -66.55201 | 8185 ft | 264 kts | 100° |
| 2026-05-07 19:36 | 10.72234 | -66.53360 | 8261 ft | 267 kts | 107° |
| 2026-05-07 19:37 | 10.71709 | -66.51544 | 8293 ft | 268 kts | 108° |
| 2026-05-07 19:37 | 10.71166 | -66.49732 | 8331 ft | 268 kts | 108° |
| 2026-05-07 19:37 | 10.70618 | -66.47915 | 8351 ft | 269 kts | 108° |
| 2026-05-07 19:37 | 10.70064 | -66.46090 | 8380 ft | 270 kts | 108° |
| 2026-05-07 19:38 | 10.69505 | -66.44262 | 8418 ft | 270 kts | 108° |
| 2026-05-07 19:38 | 10.68951 | -66.42461 | 8449 ft | 270 kts | 108° |
| 2026-05-07 19:38 | 10.68389 | -66.40640 | 8473 ft | 270 kts | 108° |
| 2026-05-07 19:38 | 10.67827 | -66.38822 | 8501 ft | 270 kts | 108° |
| 2026-05-07 19:39 | 10.67262 | -66.36996 | 8527 ft | 270 kts | 108° |
| 2026-05-07 19:39 | 10.66698 | -66.35170 | 8549 ft | 270 kts | 108° |
| 2026-05-07 19:39 | 10.66134 | -66.33343 | 8577 ft | 270 kts | 108° |
| 2026-05-07 19:39 | 10.65758 | -66.32131 | 8603 ft | 271 kts | 108° |
| 2026-05-07 19:40 | 10.65009 | -66.29707 | 8654 ft | 270 kts | 108° |
| 2026-05-07 19:40 | 10.64444 | -66.27880 | 8699 ft | 271 kts | 108° |
| 2026-05-07 19:40 | 10.63876 | -66.26046 | 8720 ft | 271 kts | 108° |
| 2026-05-07 19:40 | 10.63502 | -66.24835 | 8757 ft | 271 kts | 108° |
| 2026-05-07 19:41 | 10.62751 | -66.22408 | 8821 ft | 274 kts | 108° |
| 2026-05-07 19:41 | 10.62174 | -66.20545 | 8906 ft | 278 kts | 108° |
| 2026-05-07 19:41 | 10.61786 | -66.19295 | 8934 ft | 280 kts | 108° |
| 2026-05-07 19:41 | 10.61141 | -66.17408 | 9084 ft | 285 kts | 119° |
| 2026-05-07 19:42 | 10.60059 | -66.15731 | 9882 ft | 285 kts | 126° |
| 2026-05-07 19:42 | 10.58870 | -66.14104 | 10555 ft | 288 kts | 126° |
| 2026-05-07 19:42 | 10.57666 | -66.12482 | 11223 ft | 292 kts | 125° |
| 2026-05-07 19:42 | 10.56424 | -66.10817 | 11896 ft | 295 kts | 125° |
| 2026-05-07 19:43 | 10.54762 | -66.08595 | 12765 ft | 300 kts | 125° |
| 2026-05-07 19:43 | 10.53898 | -66.07443 | 13222 ft | 303 kts | 125° |
| 2026-05-07 19:43 | 10.52628 | -66.05754 | 13844 ft | 306 kts | 126° |
| 2026-05-07 19:43 | 10.51327 | -66.04022 | 14486 ft | 310 kts | 126° |
| 2026-05-07 19:44 | 10.50006 | -66.02265 | 15151 ft | 314 kts | 126° |
| 2026-05-07 19:44 | 10.48669 | -66.00485 | 15797 ft | 318 kts | 127° |
| 2026-05-07 19:44 | 10.47313 | -65.98681 | 16436 ft | 322 kts | 127° |
| 2026-05-07 19:44 | 10.45946 | -65.96863 | 17082 ft | 326 kts | 127° |
| 2026-05-07 19:45 | 10.44560 | -65.95021 | 17717 ft | 329 kts | 128° |
| 2026-05-07 19:45 | 10.43176 | -65.93180 | 18325 ft | 333 kts | 128° |
| 2026-05-07 19:45 | 10.41756 | -65.91293 | 18919 ft | 338 kts | 129° |
| 2026-05-07 19:45 | 10.40306 | -65.89366 | 19513 ft | 343 kts | 129° |
| 2026-05-07 19:46 | 10.38862 | -65.87447 | 20071 ft | 347 kts | 129° |
| 2026-05-07 19:46 | 10.37385 | -65.85484 | 20613 ft | 352 kts | 129° |
| 2026-05-07 19:46 | 10.35885 | -65.83491 | 21152 ft | 356 kts | 129° |
| 2026-05-07 19:46 | 10.34365 | -65.81473 | 21685 ft | 360 kts | 129° |
| 2026-05-07 19:47 | 10.32852 | -65.79464 | 22205 ft | 364 kts | 130° |
| 2026-05-07 19:47 | 10.31298 | -65.77401 | 22701 ft | 369 kts | 130° |
| 2026-05-07 19:47 | 10.29726 | -65.75314 | 23190 ft | 373 kts | 130° |
| 2026-05-07 19:47 | 10.28137 | -65.73206 | 23657 ft | 378 kts | 130° |
| 2026-05-07 19:48 | 10.26529 | -65.71072 | 24120 ft | 382 kts | 130° |
| 2026-05-07 19:48 | 10.24907 | -65.68920 | 24583 ft | 385 kts | 130° |
| 2026-05-07 19:48 | 10.23289 | -65.66773 | 25043 ft | 389 kts | 130° |
| 2026-05-07 19:48 | 10.21636 | -65.64580 | 25511 ft | 392 kts | 131° |
| 2026-05-07 19:49 | 10.19975 | -65.62379 | 25969 ft | 394 kts | 131° |
| 2026-05-07 19:49 | 10.18299 | -65.60156 | 26415 ft | 397 kts | 131° |
| 2026-05-07 19:49 | 10.16613 | -65.57923 | 26879 ft | 399 kts | 131° |
| 2026-05-07 19:49 | 10.14919 | -65.55678 | 27294 ft | 402 kts | 131° |
| 2026-05-07 19:50 | 10.13209 | -65.53411 | 27719 ft | 405 kts | 131° |
| 2026-05-07 19:50 | 10.11491 | -65.51136 | 28133 ft | 408 kts | 131° |
| 2026-05-07 19:50 | 10.09757 | -65.48839 | 28520 ft | 410 kts | 131° |
| 2026-05-07 19:50 | 10.08031 | -65.46567 | 28912 ft | 412 kts | 133° |
| 2026-05-07 19:51 | 10.06170 | -65.44340 | 29299 ft | 413 kts | 135° |
| 2026-05-07 19:51 | 10.04270 | -65.42134 | 29675 ft | 415 kts | 135° |
| 2026-05-07 19:51 | 10.02361 | -65.39919 | 30042 ft | 417 kts | 135° |
| 2026-05-07 19:51 | 10.00448 | -65.37691 | 30378 ft | 420 kts | 135° |
| 2026-05-07 19:52 | 9.98530 | -65.35445 | 30715 ft | 422 kts | 135° |
| 2026-05-07 19:52 | 9.96599 | -65.33185 | 31064 ft | 424 kts | 135° |
| 2026-05-07 19:52 | 9.94658 | -65.30913 | 31369 ft | 427 kts | 135° |
| 2026-05-07 19:52 | 9.92704 | -65.28627 | 31675 ft | 429 kts | 135° |
| 2026-05-07 19:53 | 9.90768 | -65.26362 | 31960 ft | 432 kts | 135° |
| 2026-05-07 19:53 | 9.88791 | -65.24051 | 32250 ft | 434 kts | 135° |
| 2026-05-07 19:53 | 9.86801 | -65.21723 | 32535 ft | 436 kts | 135° |
| 2026-05-07 19:53 | 9.84812 | -65.19397 | 32809 ft | 438 kts | 135° |
| 2026-05-07 19:54 | 9.82794 | -65.17039 | 32917 ft | 444 kts | 135° |
| 2026-05-07 19:54 | 9.80748 | -65.14649 | 32932 ft | 450 kts | 135° |
| 2026-05-07 19:54 | 9.76634 | -65.09842 | 32943 ft | 457 kts | 134° |
| 2026-05-07 19:55 | 9.72439 | -65.04943 | 32947 ft | 461 kts | 134° |
| 2026-05-07 19:55 | 9.68221 | -65.00021 | 32946 ft | 463 kts | 135° |
| 2026-05-07 19:56 | 9.64007 | -64.95102 | 32946 ft | 465 kts | 134° |
| 2026-05-07 19:56 | 9.59746 | -64.90133 | 32949 ft | 467 kts | 134° |
| 2026-05-07 19:57 | 9.55459 | -64.85135 | 32948 ft | 469 kts | 134° |
| 2026-05-07 19:57 | 9.51186 | -64.80156 | 32946 ft | 471 kts | 134° |
| 2026-05-07 19:58 | 9.46872 | -64.75131 | 32950 ft | 473 kts | 134° |
| 2026-05-07 19:58 | 9.42509 | -64.70112 | 32949 ft | 475 kts | 135° |
| 2026-05-07 19:59 | 9.38065 | -64.65134 | 32949 ft | 476 kts | 135° |
| 2026-05-07 19:59 | 9.33656 | -64.60173 | 32948 ft | 476 kts | 135° |
| 2026-05-07 20:00 | 9.29209 | -64.55173 | 32946 ft | 477 kts | 135° |
| 2026-05-07 20:00 | 9.24768 | -64.50182 | 32948 ft | 477 kts | 135° |
| 2026-05-07 20:01 | 9.20350 | -64.45220 | 32944 ft | 476 kts | 135° |
| 2026-05-07 20:01 | 9.15910 | -64.40233 | 32946 ft | 476 kts | 135° |
| 2026-05-07 20:02 | 9.11467 | -64.35246 | 32946 ft | 476 kts | 135° |
| 2026-05-07 20:02 | 9.07031 | -64.30268 | 32947 ft | 476 kts | 135° |
| 2026-05-07 20:03 | 9.02589 | -64.25287 | 32947 ft | 476 kts | 135° |
| 2026-05-07 20:03 | 8.98178 | -64.20341 | 32947 ft | 476 kts | 135° |
| 2026-05-07 20:04 | 8.93586 | -64.15538 | 32955 ft | 472 kts | 143° |
| 2026-05-07 20:04 | 8.88415 | -64.11475 | 32948 ft | 469 kts | 146° |
| 2026-05-07 20:05 | 8.83241 | -64.07496 | 32945 ft | 469 kts | 146° |
| 2026-05-07 20:05 | 8.78030 | -64.03501 | 32945 ft | 470 kts | 146° |
| 2026-05-07 20:06 | 8.72808 | -63.99509 | 32944 ft | 470 kts | 146° |
| 2026-05-07 20:06 | 8.67599 | -63.95535 | 32949 ft | 471 kts | 146° |
| 2026-05-07 20:07 | 8.62357 | -63.91535 | 32945 ft | 472 kts | 146° |